»·PEaware :: N2710U KSTS-KSQL

N2710U :: KSTS-KSQL

FLIGHT INFORMATION

Flight Status: Arrived
Operator: Privately registered:
United States
More flights under this callsign
Pilot: Nathan P. (3026)
Aircraft: CESSNA T210 TURBO CENTURION
(T210)
More flights by this aircraft type
Origin: KSTS Sonoma Co
United States
Destination: KSQL San Carlos
United States
More flights between these airports :: More routes between these airports
Route: +PYE
File this flight plan on PilotEdge
Remarks:
Altitude:
(Current/Filed)
5,000ft
Speed:
(Current/Filed)
140kts
Departed: 04-Dec-19 06:26 PM
Arrived: 04-Dec-19 07:44 PM
Distance/Time
Traveled:
66nm/1:18
Distance/Time
To Go:
Arrived

Flight Plot

Page will automatically refresh every two minutes.

Flight plan parsing failed; only flown route is shown


Map Options




Map Legend


Flown Route
Filed Route
Departure Airport
Arrival Airport
Navaid (VOR, NDB)
Fix

Horizontal Profiles

Position Reports

Time Latitude Longitude Heading Altitude Ground
Speed
04-Dec-19 18:03 38.507633 -122.802155 179 122ft 0kts
04-Dec-19 18:07 38.507633 -122.802155 179 122ft 0kts
04-Dec-19 18:08 38.507633 -122.802155 179 122ft 0kts
04-Dec-19 18:09 38.507633 -122.802155 179 122ft 0kts
04-Dec-19 18:10 38.507633 -122.802155 179 122ft 0kts
04-Dec-19 18:11 38.507633 -122.802155 179 122ft 0kts
04-Dec-19 18:12 38.507633 -122.802155 179 122ft 0kts
04-Dec-19 18:13 38.507633 -122.802155 179 122ft 0kts
04-Dec-19 18:14 38.507633 -122.802155 179 122ft 0kts
04-Dec-19 18:15 38.507633 -122.802155 179 122ft 0kts
04-Dec-19 18:16 38.507633 -122.802155 179 122ft 0kts
04-Dec-19 18:17 38.507633 -122.802155 179 122ft 0kts
04-Dec-19 18:18 38.507633 -122.802155 179 122ft 0kts
04-Dec-19 18:19 38.507633 -122.802155 179 122ft 0kts
04-Dec-19 18:20 38.507409 -122.802831 267 122ft 23kts
04-Dec-19 18:21 38.507361 -122.806027 268 122ft 0kts
04-Dec-19 18:22 38.509326 -122.807833 337 121ft 23kts
04-Dec-19 18:23 38.514634 -122.810687 339 115ft 16kts
04-Dec-19 18:24 38.515222 -122.812376 215 117ft 4kts
04-Dec-19 18:25 38.510761 -122.815533 209 119ft 88kts
04-Dec-19 18:26 38.492564 -122.826282 198 943ft 87kts
04-Dec-19 18:27 38.472095 -122.820806 165 1725ft 108kts
04-Dec-19 18:28 38.447539 -122.820037 182 2423ft 120kts
04-Dec-19 18:29 38.422063 -122.823252 190 3098ft 123kts
04-Dec-19 18:30 38.396633 -122.827216 187 3770ft 124kts
04-Dec-19 18:31 38.370107 -122.830659 187 4467ft 124kts
04-Dec-19 18:32 38.340170 -122.834549 188 5010ft 140kts
04-Dec-19 18:33 38.295125 -122.840396 184 5005ft 163kts
04-Dec-19 18:34 38.248509 -122.845483 185 5001ft 165kts
04-Dec-19 18:35 38.201240 -122.851382 186 4999ft 159kts
04-Dec-19 18:36 38.157493 -122.857066 185 5008ft 148kts
04-Dec-19 18:37 38.130479 -122.860512 185 5011ft 147kts
04-Dec-19 18:38 38.105270 -122.863715 185 5013ft 146kts
04-Dec-19 18:39 38.078422 -122.863727 155 5027ft 147kts
04-Dec-19 18:40 38.059096 -122.844978 138 5018ft 149kts
04-Dec-19 18:41 38.041499 -122.824837 138 5016ft 149kts
04-Dec-19 18:42 38.023703 -122.805013 139 5016ft 149kts
04-Dec-19 18:43 38.005746 -122.785240 138 5017ft 149kts
04-Dec-19 18:44 37.989386 -122.766825 138 5016ft 149kts
04-Dec-19 18:45 37.974077 -122.749722 138 5016ft 149kts
04-Dec-19 18:46 37.953242 -122.726732 139 5016ft 149kts
04-Dec-19 18:47 37.923135 -122.693754 139 5008ft 149kts
04-Dec-19 18:48 37.903053 -122.675853 146 4996ft 148kts
04-Dec-19 18:49 37.884641 -122.661402 148 4995ft 147kts
04-Dec-19 18:50 37.864162 -122.645608 147 4993ft 147kts
04-Dec-19 18:51 37.845282 -122.630922 147 4990ft 147kts
04-Dec-19 18:52 37.826619 -122.616373 147 4987ft 146kts
04-Dec-19 18:53 37.807205 -122.601238 146 4984ft 146kts
04-Dec-19 18:54 37.788871 -122.586954 146 4982ft 145kts
04-Dec-19 18:55 37.770527 -122.572673 146 4979ft 145kts
04-Dec-19 18:56 37.752622 -122.558740 146 4977ft 145kts
04-Dec-19 18:57 37.735099 -122.545110 146 4976ft 145kts
04-Dec-19 18:58 37.716944 -122.530998 146 4976ft 145kts
04-Dec-19 18:59 37.697813 -122.516135 146 4975ft 145kts
04-Dec-19 19:00 37.675801 -122.499046 146 4974ft 145kts
04-Dec-19 19:01 37.655093 -122.482981 146 4974ft 145kts
04-Dec-19 19:03 37.635444 -122.467752 146 4973ft 145kts
04-Dec-19 19:04 37.616550 -122.453112 146 4973ft 145kts
04-Dec-19 19:05 37.595705 -122.436974 146 4972ft 145kts
04-Dec-19 19:06 37.575162 -122.421076 146 4992ft 143kts
04-Dec-19 19:07 37.554719 -122.405242 145 5097ft 143kts
04-Dec-19 19:08 37.533693 -122.388995 145 5096ft 148kts
04-Dec-19 19:09 37.513105 -122.373100 145 5093ft 149kts
04-Dec-19 19:10 37.493050 -122.357624 145 5092ft 149kts
04-Dec-19 19:11 37.472839 -122.342035 146 5092ft 149kts
04-Dec-19 19:12 37.451734 -122.325768 146 5092ft 149kts
04-Dec-19 19:13 37.430246 -122.309216 146 5093ft 149kts
04-Dec-19 19:14 37.409899 -122.293553 146 5093ft 149kts
04-Dec-19 19:15 37.389863 -122.276025 130 5101ft 148kts
04-Dec-19 19:16 37.373769 -122.252674 128 5095ft 148kts
04-Dec-19 19:17 37.357878 -122.229094 128 5095ft 148kts
04-Dec-19 19:18 37.340560 -122.203622 128 5097ft 150kts
04-Dec-19 19:19 37.323991 -122.179350 130 5097ft 149kts
04-Dec-19 19:20 37.308368 -122.156511 123 5090ft 128kts
04-Dec-19 19:20 37.306322 -122.138437 72 5102ft 119kts
04-Dec-19 19:22 37.317959 -122.119201 44 4752ft 139kts
04-Dec-19 19:23 37.331124 -122.103080 42 4282ft 150kts
04-Dec-19 19:23 37.341597 -122.090979 40 3941ft 150kts
04-Dec-19 19:24 37.353742 -122.077709 38 3889ft 130kts
04-Dec-19 19:26 37.366326 -122.065142 34 3797ft 114kts
04-Dec-19 19:26 37.374654 -122.057797 29 3381ft 103kts
04-Dec-19 19:27 37.385113 -122.058169 312 2997ft 97kts
04-Dec-19 19:29 37.388892 -122.074687 294 2517ft 102kts
04-Dec-19 19:29 37.393464 -122.087134 301 2131ft 103kts
04-Dec-19 19:30 37.401475 -122.098980 303 2008ft 85kts
04-Dec-19 19:31 37.408462 -122.112001 305 2003ft 90kts
04-Dec-19 19:32 37.416023 -122.126436 300 2000ft 91kts
04-Dec-19 19:33 37.426940 -122.135668 325 2001ft 90kts
04-Dec-19 19:34 37.436226 -122.146273 311 2000ft 91kts
04-Dec-19 19:35 37.444560 -122.157861 310 1999ft 91kts
04-Dec-19 19:36 37.453083 -122.170178 315 1814ft 92kts
04-Dec-19 19:37 37.462842 -122.181928 310 1419ft 92kts
04-Dec-19 19:38 37.471787 -122.194324 310 1085ft 82kts
04-Dec-19 19:39 37.480014 -122.206082 306 839ft 81kts
04-Dec-19 19:40 37.488035 -122.218124 304 642ft 81kts
04-Dec-19 19:41 37.496087 -122.230285 309 436ft 80kts
04-Dec-19 19:42 37.504797 -122.241513 316 174ft 77kts
04-Dec-19 19:43 37.511685 -122.249458 284 8ft 12kts
04-Dec-19 19:44 37.511461 -122.250436 159 8ft 4kts
04-Dec-19 19:45 37.511339 -122.250224 333 8ft 0kts
04-Dec-19 19:46 37.511377 -122.250239 347 8ft 2kts
04-Dec-19 19:47 37.511365 -122.250214 317 8ft 0kts
04-Dec-19 19:48 37.511365 -122.250214 317 8ft 0kts

Navigation Log

Ident Type
Flight plan parsing failed, navigation log unavailable